Flight Track Log - Related Links

Times and Time Zones

All times are in EDT time to prevent confusion due to time zone crossing. See the AAL180 flight status page for this flight to view local times or setup timezone preferences in your user account.

Time Position Orientation Groundspeed Altitude Reporting Facility
EDT Latitude Longitude Course Direction KTS MPH feet Rate Location/Type
Sat 07:30:38 PM 33.9333 -118.4500 49° Northeast 165 190 1,900  Level Southern California TRACON
Sat 07:31:11 PM 33.9294 -118.4764 260° West 188 216 2,600 2,043 Climbing Los Angeles Center
Sat 07:32:00 PM 34.1291 -118.0751 59° Northeast  Level FlightAware Approximate
Sat 07:32:12 PM 33.9022 -118.5500 246° West 240 276 5,100  Level Los Angeles Center
Sat 07:33:00 PM 34.1963 -117.9408 59° Northeast  Level FlightAware Approximate
Sat 07:33:14 PM 33.8447 -118.5631 191° South 266 306 7,500  Level Los Angeles Center
Sat 07:34:00 PM 34.2706 -117.8127 40° Northeast  Level FlightAware Approximate
Sat 07:34:16 PM 33.8739 -118.4803 67° East 283 326 10,400  Level Los Angeles Center
Sat 07:35:00 PM 34.3395 -117.6881 49° Northeast  Level FlightAware Approximate
Sat 07:35:29 PM 33.9397 -118.4289 33° Northeast 319 367 11,300  Level Los Angeles Center
Sat 07:36:31 PM 34.0089 -118.3006 57° Northeast 376 433 13,700 2,565 Climbing Los Angeles Center
Sat 07:37:33 PM 34.0875 -118.1647 55° Northeast 407 468 16,600 2,293 Climbing Los Angeles Center
Sat 07:38:34 PM 34.1517 -118.0475 56° Northeast 417 480 18,400 1,805 Climbing Los Angeles Center
Sat 07:39:36 PM 34.2211 -117.9256 55° Northeast 437 503 20,300 1,805 Climbing Los Angeles Center
Sat 07:40:37 PM 34.2906 -117.7975 57° Northeast 451 519 22,100 1,707 Climbing Los Angeles Center
Sat 07:41:39 PM 34.3628 -117.6658 56° Northeast 468 539 23,800 1,756 Climbing Los Angeles Center
Sat 07:42:40 PM 34.4414 -117.5258 56° Northeast 482 555 25,700 1,610 Climbing Los Angeles Center
Sat 07:43:42 PM 34.5167 -117.3878 56° Northeast 493 567 27,100 1,366 Climbing Los Angeles Center
Sat 07:44:43 PM 34.6008 -117.2497 53° Northeast 509 586 28,500 1,317 Climbing Los Angeles Center
Sat 07:45:45 PM 34.6936 -117.1186 49° Northeast 516 594 29,800 1,171 Climbing Los Angeles Center
Sat 07:46:46 PM 34.7894 -116.9881 48° Northeast 522 601 30,900 585 Climbing Los Angeles Center
Sat 07:47:48 PM 34.9072 -116.8231 49° Northeast 538 619 31,000 339 Climbing Los Angeles Center
Sat 07:48:50 PM 35.0044 -116.6878 49° Northeast 535 616 31,600 976 Climbing Los Angeles Center
Sat 07:49:51 PM 35.1006 -116.5531 49° Northeast 531 611 33,000 1,156 Climbing Los Angeles Center
Sat 07:51:05 PM 35.1975 -116.4197 48° Northeast 530 610 34,200 1,156 Climbing Los Angeles Center
Sat 07:52:06 PM 35.3108 -116.2569 50° Northeast 526 605 35,600 1,171 Climbing Los Angeles Center
Sat 07:53:08 PM 35.4061 -116.1217 49° Northeast 526 605 36,600 683 Climbing Los Angeles Center
Sat 07:54:09 PM 35.5214 -115.9589 49° Northeast 526 605 37,000 195 Climbing Los Angeles Center
Sat 07:55:11 PM 35.6178 -115.8289 48° Northeast 528 608 37,000  Level Los Angeles Center
Sat 07:56:13 PM 35.7114 -115.6964 49° Northeast 520 598 37,000  Level Los Angeles Center
Sat 07:57:14 PM 35.8022 -115.5628 50° Northeast 515 593 37,000  Level Los Angeles Center
Sat 07:58:16 PM 35.8925 -115.4322 49° Northeast 509 586 37,000  Level Los Angeles Center
Sat 07:59:17 PM 36.0011 -115.2750 49° Northeast 507 583 37,000  Level Los Angeles Center
Sat 08:00:19 PM 36.0908 -115.1431 50° Northeast 505 581 37,000  Level Los Angeles Center
Sat 08:01:20 PM 36.1894 -115.0181 46° Northeast 510 587 37,000  Level Los Angeles Center
Sat 08:02:22 PM 36.2881 -114.8922 46° Northeast 512 589 37,000  Level Los Angeles Center
Sat 08:03:23 PM 36.3867 -114.7672 46° Northeast 511 588 37,000  Level Los Angeles Center
Sat 08:04:24 PM 36.4850 -114.6381 47° Northeast 514 592 37,000  Level Los Angeles Center
Sat 08:05:26 PM 36.5839 -114.5100 46° Northeast 514 592 37,000  Level Los Angeles Center
Sat 08:06:27 PM 36.7011 -114.3547 47° Northeast 515 593 37,000  Level Los Angeles Center
Sat 08:07:41 PM 36.7886 -114.2144 52° Northeast 521 600 37,000  Level Los Angeles Center
Sat 08:08:43 PM 36.8778 -114.0306 59° Northeast 516 594 37,000  Level Los Angeles Center
Sat 08:09:44 PM 36.9525 -113.8756 59° Northeast 518 596 37,000  Level Los Angeles Center
Sat 08:10:46 PM 37.0244 -113.7225 59° Northeast 514 592 37,000  Level Los Angeles Center
Sat 08:11:47 PM 37.0983 -113.5681 59° Northeast 517 595 37,000  Level Los Angeles Center
Sat 08:12:48 PM 37.1714 -113.4136 59° Northeast 517 595 37,000  Level Los Angeles Center
Sat 08:13:50 PM 37.2442 -113.2600 59° Northeast 516 594 37,000  Level Los Angeles Center
Sat 08:14:51 PM 37.3306 -113.0742 60° Northeast 516 594 37,000  Level Los Angeles Center
Sat 08:15:53 PM 37.4028 -112.9192 60° Northeast 518 596 37,000  Level Los Angeles Center
Sat 08:16:32 PM 37.4433 -112.8275 61° Northeast 518 596 37,000  Level Salt Lake Center
Sat 08:17:33 PM 37.5158 -112.6753 59° Northeast 521 600 37,000  Level Salt Lake Center
Sat 08:18:34 PM 37.5875 -112.5219 59° Northeast 518 596 37,000  Level Salt Lake Center
Sat 08:19:35 PM 37.6736 -112.3369 59° Northeast 515 593 37,000  Level Salt Lake Center
Sat 08:20:36 PM 37.7542 -112.1892 55° Northeast 513 590 37,000  Level Salt Lake Center
Sat 08:21:36 PM 37.8394 -112.0444 53° Northeast 515 593 37,000  Level Salt Lake Center
Sat 08:22:37 PM 37.9239 -111.8986 54° Northeast 516 594 37,000  Level Salt Lake Center
Sat 08:23:38 PM 38.0086 -111.7525 54° Northeast 515 593 37,000  Level Salt Lake Center
Sat 08:24:39 PM 38.0925 -111.6053 54° Northeast 516 594 37,000  Level Salt Lake Center
Sat 08:25:40 PM 38.1753 -111.4572 55° Northeast 515 593 37,000  Level Salt Lake Center
Sat 08:26:41 PM 38.2600 -111.3114 53° Northeast 515 593 37,000  Level Salt Lake Center
Sat 08:27:42 PM 38.3419 -111.1614 55° Northeast 516 594 37,000  Level Salt Lake Center
Sat 08:28:43 PM 38.4256 -111.0156 54° Northeast 511 588 37,000  Level Salt Lake Center
Sat 08:29:43 PM 38.5094 -110.8628 55° Northeast 520 598 37,000  Level Salt Lake Center
Sat 08:30:44 PM 38.6025 -110.6989 54° Northeast 511 588 37,000  Level Salt Lake Center
Sat 08:31:43 PM 38.6792 -110.5528 56° Northeast 513 590 37,000  Level Denver Center
Sat 08:32:45 PM 38.7567 -110.4100 55° Northeast 511 588 37,000  Level Denver Center
Sat 08:33:46 PM 38.8486 -110.2422 55° Northeast 515 593 37,000  Level Denver Center
Sat 08:34:47 PM 38.9272 -110.1008 54° Northeast 511 588 37,000  Level Denver Center
Sat 08:35:48 PM 39.0075 -109.9583 54° Northeast 513 590 37,000  Level Salt Lake Center
Sat 08:36:49 PM 39.0972 -109.7903 55° Northeast 511 588 37,000  Level Salt Lake Center
Sat 08:38:02 PM 39.1856 -109.6197 56° Northeast 511 588 37,000  Level Denver Center
Sat 08:39:03 PM 39.2750 -109.4500 56° Northeast 512 589 37,000  Level Denver Center
Sat 08:39:52 PM 39.3408 -109.3328 54° Northeast 510 587 37,000 327 Level Salt Lake Center
Sat 08:40:53 PM 39.4167 -109.1875 56° Northeast 511 588 37,600 689 Climbing Salt Lake Center
Sat 08:41:54 PM 39.5047 -109.0181 56° Northeast 510 587 38,400 639 Climbing Salt Lake Center
Sat 08:42:55 PM 39.5797 -108.8725 56° Northeast 508 585 38,900 298 Climbing Salt Lake Center
Sat 08:43:55 PM 39.6569 -108.7283 55° Northeast 511 588 39,000 50 Climbing Salt Lake Center
Sat 08:44:56 PM 39.7414 -108.5642 56° Northeast 517 595 39,000  Level Salt Lake Center
Sat 08:45:57 PM 39.8147 -108.4214 56° Northeast 500 575 39,000  Level Salt Lake Center
Sat 08:46:58 PM 39.9011 -108.2542 56° Northeast 500 575 39,000  Level Salt Lake Center
Sat 08:47:59 PM 39.9747 -108.1117 56° Northeast 497 572 39,000  Level Salt Lake Center
Sat 08:49:00 PM 40.0478 -107.9678 56° Northeast 497 572 39,000  Level Salt Lake Center
Sat 08:50:15 PM 40.1089 -107.7481 70° East 504 580 39,000  Level Denver Center
Sat 08:51:16 PM 40.1531 -107.5522 74° East 503 579 39,000  Level Denver Center
Sat 08:52:17 PM 40.1903 -107.3839 74° East 504 580 39,000  Level Denver Center
Sat 08:53:18 PM 40.2294 -107.2150 73° East 505 581 39,000  Level Denver Center
Sat 08:54:19 PM 40.2731 -107.0175 74° East 507 583 39,000  Level Denver Center
Sat 08:55:20 PM 40.3131 -106.8431 73° East 506 582 39,000  Level Denver Center
Sat 08:56:21 PM 40.3531 -106.6661 73° East 505 581 39,000  Level Denver Center
Sat 08:57:22 PM 40.3931 -106.4828 74° East 504 580 39,000  Level Denver Center
Sat 08:58:24 PM 40.4292 -106.3158 74° East 498 573 39,000  Level Denver Center
Sat 08:59:25 PM 40.4683 -106.1372 74° East 498 573 39,000  Level Denver Center
Sat 09:00:26 PM 40.5058 -105.9631 74° East 495 570 39,000  Level Denver Center
Sat 09:01:27 PM 40.5444 -105.7883 74° East 497 572 39,000  Level Denver Center
Sat 09:02:28 PM 40.5769 -105.6058 77° East 506 582 39,000  Level Denver Center
Sat 09:03:29 PM 40.6169 -105.4117 75° East 502 578 39,000  Level Denver Center
Sat 09:04:30 PM 40.6528 -105.2456 74° East 497 572 39,000  Level Denver Center
Sat 09:05:31 PM 40.6925 -105.0558 75° East 497 572 39,000  Level Denver Center
Sat 09:06:32 PM 40.7286 -104.8817 75° East 494 568 39,000  Level Denver Center
Sat 09:07:33 PM 40.7611 -104.7186 75° East 491 565 39,000  Level Denver Center
Sat 09:08:35 PM 40.8003 -104.5247 75° East 491 565 39,000  Level Denver Center
Sat 09:09:36 PM 40.8328 -104.3600 75° East 488 562 39,000  Level Denver Center
Sat 09:10:37 PM 40.8703 -104.1661 76° East 488 562 39,000  Level Denver Center
Sat 09:11:38 PM 40.9025 -104.0003 76° East 489 563 39,000  Level Denver Center
Sat 09:12:39 PM 40.9358 -103.8322 75° East 493 567 39,000  Level Denver Center
Sat 09:13:40 PM 40.9722 -103.6386 76° East 488 562 39,000  Level Denver Center
Sat 09:14:41 PM 41.0039 -103.4717 76° East 490 564 39,000  Level Denver Center
Sat 09:15:42 PM 41.0350 -103.3031 76° East 493 567 39,000  Level Denver Center
Sat 09:16:43 PM 41.0708 -103.1075 76° East 490 564 39,000  Level Denver Center
Sat 09:17:44 PM 41.1014 -102.9461 76° East 490 564 39,000  Level Denver Center
Sat 09:18:46 PM 41.1428 -102.7522 74° East 490 564 39,000  Level Denver Center
Sat 09:19:47 PM 41.1789 -102.5861 74° East 489 563 39,000  Level Denver Center
Sat 09:20:48 PM 41.2211 -102.3914 74° East 490 564 39,000  Level Denver Center
Sat 09:21:49 PM 41.2511 -102.2533 74° East 488 562 39,000  Level Denver Center
Sat 09:22:50 PM 41.2917 -102.0592 74° East 487 560 39,000  Level Denver Center
Sat 09:23:51 PM 41.3319 -101.8683 74° East 482 555 39,000  Level Denver Center
Sat 09:24:53 PM 41.3644 -101.7047 75° East 478 550 39,000  Level Denver Center
Sat 09:25:54 PM 41.3972 -101.5403 75° East 478 550 39,000  Level Denver Center
Sat 09:26:55 PM 41.4372 -101.3478 74° East 480 552 39,000  Level Denver Center
Sat 09:27:56 PM 41.4697 -101.1814 75° East 482 555 39,000  Level Denver Center
Sat 09:28:57 PM 41.5028 -101.0142 75° East 484 557 39,000  Level Denver Center
Sat 09:29:58 PM 41.5664 -100.8286 65° Northeast 494 568 39,000  Level Denver Center
Sat 09:31:00 PM 41.6286 -100.6736 62° Northeast 493 567 39,000  Level Denver Center
Sat 09:32:01 PM 41.6925 -100.5175 61° Northeast 497 572 39,000  Level Denver Center
Sat 09:33:02 PM 41.7672 -100.3339 61° Northeast 500 575 39,000  Level Denver Center
Sat 09:34:03 PM 41.8311 -100.1742 62° Northeast 506 582 39,000  Level Denver Center
Sat 09:35:16 PM 41.8917 -99.9800 67° East 504 580 39,000  Level Denver Center
Sat 09:36:18 PM 41.9386 -99.7761 73° East 511 588 39,000  Level Denver Center
Sat 09:37:19 PM 41.9797 -99.5853 74° East 517 595 39,000  Level Denver Center
Sat 09:38:20 PM 42.0183 -99.3989 74° East 515 593 39,000  Level Denver Center
Sat 09:39:21 PM 42.0558 -99.2122 75° East 517 595 39,000  Level Denver Center
Sat 09:40:22 PM 42.0908 -99.0244 76° East 515 593 39,000  Level Denver Center
Sat 09:41:24 PM 42.1225 -98.8369 77° East 513 590 39,000  Level Denver Center
Sat 09:42:25 PM 42.1517 -98.6503 78° East 509 586 39,000  Level Denver Center
Sat 09:43:26 PM 42.1522 -98.4611 90° East 507 583 39,000  Level Denver Center
Sat 09:44:31 PM 42.1700 -98.2361 84° East 505 581 39,000  Level Minneapolis Center
Sat 09:45:31 PM 42.1831 -98.0475 85° East 504 580 39,000  Level Minneapolis Center
Sat 09:46:32 PM 42.1964 -97.8575 85° East 506 582 39,000  Level Minneapolis Center
Sat 09:47:33 PM 42.2083 -97.6869 85° East 508 585 39,000  Level Minneapolis Center
Sat 09:48:33 PM 42.2203 -97.4972 85° East 508 585 39,000  Level Minneapolis Center
Sat 09:49:34 PM 42.2333 -97.3069 85° East 509 586 39,000  Level Minneapolis Center
Sat 09:50:35 PM 42.2464 -97.1175 85° East 507 583 39,000  Level Minneapolis Center
Sat 09:51:35 PM 42.2603 -96.9286 84° East 506 582 39,000  Level Minneapolis Center
Sat 09:52:36 PM 42.2758 -96.7028 85° East 503 579 39,000  Level Minneapolis Center
Sat 09:53:37 PM 42.2900 -96.5150 84° East 502 578 39,000  Level Minneapolis Center
Sat 09:54:37 PM 42.3019 -96.3242 85° East 502 578 39,000  Level Minneapolis Center
Sat 09:55:38 PM 42.3122 -96.1386 86° East 501 577 39,000  Level Minneapolis Center
Sat 09:56:38 PM 42.3236 -95.9492 85° East 502 578 39,000  Level Minneapolis Center
Sat 09:57:39 PM 42.3336 -95.7619 86° East 500 575 39,000  Level Minneapolis Center
Sat 09:58:40 PM 42.3444 -95.5736 85° East 501 577 39,000  Level Minneapolis Center
Sat 09:59:40 PM 42.3547 -95.3881 86° East 496 571 39,000  Level Minneapolis Center
Sat 10:00:41 PM 42.3639 -95.2003 86° East 498 573 39,000  Level Minneapolis Center
Sat 10:01:42 PM 42.3733 -95.0133 86° East 497 572 39,000  Level Minneapolis Center
Sat 10:02:42 PM 42.3822 -94.8264 86° East 497 572 39,000  Level Minneapolis Center
Sat 10:03:43 PM 42.3919 -94.6386 86° East 499 574 39,000  Level Minneapolis Center
Sat 10:04:44 PM 42.3997 -94.4492 87° East 502 578 39,000  Level Minneapolis Center
Sat 10:05:44 PM 42.4067 -94.2611 87° East 501 577 39,000  Level Minneapolis Center
Sat 10:06:45 PM 42.4161 -94.0744 86° East 506 582 39,000  Level Minneapolis Center
Sat 10:07:45 PM 42.4231 -93.8894 87° East 499 574 39,000  Level Minneapolis Center
Sat 10:08:46 PM 42.4289 -93.7017 88° East 502 578 39,000  Level Minneapolis Center
Sat 10:09:46 PM 42.4361 -93.5189 87° East 495 570 39,000  Level Minneapolis Center
Sat 10:10:59 PM 42.4439 -93.3336 87° East 498 573 39,000  Level Minneapolis Center
Sat 10:12:00 PM 42.4503 -93.1128 88° East 494 568 39,000  Level Minneapolis Center
Sat 10:12:26 PM 42.4525 -93.0378 88° East 493 567 39,000  Level Chicago Center
Sat 10:13:26 PM 42.4597 -92.8178 87° East 493 567 39,000  Level Chicago Center
Sat 10:14:26 PM 42.4653 -92.6322 88° East 495 570 39,000  Level Chicago Center
Sat 10:15:27 PM 42.4703 -92.4489 88° East 493 567 39,000  Level Chicago Center
Sat 10:16:27 PM 42.4750 -92.2661 88° East 492 566 39,000  Level Chicago Center
Sat 10:17:28 PM 42.4789 -92.0800 88° East 497 572 39,000  Level Chicago Center
Sat 10:18:28 PM 42.4833 -91.8983 88° East 494 568 39,000  Level Chicago Center
Sat 10:19:28 PM 42.4872 -91.7150 88° East 496 571 39,000  Level Chicago Center
Sat 10:20:30 PM 42.4897 -91.5325 89° East 497 572 39,000  Level Chicago Center
Sat 10:21:29 PM 42.4936 -91.3483 88° East 500 575 39,000  Level Chicago Center
Sat 10:22:30 PM 42.4958 -91.1669 89° East 494 568 39,000  Level Chicago Center
Sat 10:23:30 PM 42.4989 -90.9431 89° East 501 577 39,000  Level Chicago Center
Sat 10:24:31 PM 42.5011 -90.7575 89° East 500 575 39,000  Level Chicago Center
Sat 10:25:31 PM 42.5028 -90.5717 89° East 499 574 39,000  Level Chicago Center
Sat 10:26:31 PM 42.5039 -90.3842 89° East 502 578 39,000  Level Chicago Center
Sat 10:27:32 PM 42.5069 -90.1964 89° East 505 581 39,000  Level Chicago Center
Sat 10:28:32 PM 42.5069 -90.0092 90° East 504 580 39,000  Level Chicago Center
Sat 10:29:33 PM 42.5094 -89.7983 89° East 506 582 39,000  Level Chicago Center
Sat 10:30:33 PM 42.5103 -89.6086 90° East 507 583 39,000  Level Chicago Center
Sat 10:31:33 PM 42.5108 -89.4183 90° East 506 582 39,000  Level Chicago Center
Sat 10:32:34 PM 42.5108 -89.2275 90° East 506 582 39,000  Level Chicago Center
Sat 10:33:34 PM 42.5094 -89.0378 91° East 505 581 39,000  Level Chicago Center
Sat 10:34:35 PM 42.5086 -88.8458 90° East 508 585 39,000  Level Chicago Center
Sat 10:35:35 PM 42.5078 -88.6564 90° East 505 581 39,000  Level Chicago Center
Sat 10:36:35 PM 42.5067 -88.4653 90° East 507 583 39,000  Level Chicago Center
Sat 10:37:36 PM 42.5056 -88.2756 90° East 506 582 39,000  Level Chicago Center
Sat 10:38:36 PM 42.5031 -88.0869 91° East 504 580 39,000  Level Chicago Center
Sat 10:39:37 PM 42.5006 -87.8950 91° East 509 586 39,000  Level Chicago Center
Sat 10:40:37 PM 42.5011 -87.7119 90° East 509 586 39,000  Level Chicago Center
Sat 10:41:37 PM 42.4994 -87.5211 91° East 507 583 39,000  Level Chicago Center
Sat 10:42:38 PM 42.4986 -87.3289 90° East 510 587 39,000  Level Chicago Center
Sat 10:43:38 PM 42.4981 -87.1364 90° East 512 589 39,000  Level Chicago Center
Sat 10:44:38 PM 42.4964 -86.9442 91° East 513 590 39,000  Level Chicago Center
Sat 10:45:39 PM 42.4944 -86.7522 91° East 512 589 39,000  Level Chicago Center
Sat 10:46:39 PM 42.4933 -86.5372 90° East 515 593 39,000  Level Chicago Center
Sat 10:47:39 PM 42.4903 -86.3464 91° East 511 588 39,000  Level Chicago Center
Sat 10:48:40 PM 42.4869 -86.1539 91° East 516 594 39,000  Level Chicago Center
Sat 10:49:40 PM 42.4839 -85.9622 91° East 515 593 39,000  Level Chicago Center
Sat 10:50:40 PM 42.4806 -85.7706 91° East 515 593 39,000  Level Chicago Center
Sat 10:51:41 PM 42.4769 -85.5769 91° East 517 595 39,000  Level Chicago Center
Sat 10:52:41 PM 42.4731 -85.3831 91° East 520 598 39,000  Level Chicago Center
Sat 10:53:41 PM 42.4686 -85.1897 92° East 519 597 39,000  Level Chicago Center
Sat 10:54:42 PM 42.4642 -84.9953 92° East 519 597 39,000  Level Chicago Center
Sat 10:55:42 PM 42.4589 -84.8022 92° East 517 595 39,000  Level Chicago Center
Sat 10:56:42 PM 42.4539 -84.6069 92° East 519 597 39,000  Level Chicago Center
Sat 10:57:43 PM 42.4492 -84.4097 92° East 525 604 39,000  Level Chicago Center
Sat 10:58:11 PM 42.4414 -84.3144 96° East 521 600 39,000  Level Cleveland Center
Sat 10:59:11 PM 42.4353 -84.1142 92° East 521 600 39,000  Level Cleveland Center
Sat 11:00:11 PM 42.4286 -83.9197 93° East 521 600 39,000  Level Cleveland Center
Sat 11:01:11 PM 42.4214 -83.7222 93° East 521 600 39,000  Level Cleveland Center
Sat 11:02:11 PM 42.4128 -83.5025 93° East 526 605 39,000  Level Cleveland Center
Sat 11:03:11 PM 42.4031 -83.3053 94° East 532 612 39,000  Level Cleveland Center
Sat 11:04:11 PM 42.3972 -83.1025 92° East 537 618 39,000  Level Cleveland Center
Sat 11:05:11 PM 42.3867 -82.9053 94° East 537 618 39,000  Level Cleveland Center
Sat 11:06:11 PM 42.3781 -82.7053 93° East 537 618 39,000  Level Cleveland Center
Sat 11:07:11 PM 42.3711 -82.5139 93° East 537 618 39,000  Level Cleveland Center
Sat 11:08:11 PM 42.3617 -82.3169 94° East 531 611 39,000  Level Cleveland Center
Sat 11:09:11 PM 42.3578 -82.1594 92° East 524 603 39,000  Level Cleveland Center
Sat 11:10:11 PM 42.3481 -81.9344 93° East 511 588 39,000  Level Cleveland Center
Sat 11:11:11 PM 42.3356 -81.7433 95° East 511 588 39,000  Level Cleveland Center
Sat 11:12:11 PM 42.3186 -81.5575 97° East 511 588 39,000  Level Cleveland Center
Sat 11:13:11 PM 42.2992 -81.3664 98° East 511 588 39,000  Level Cleveland Center
Sat 11:14:11 PM 42.2772 -81.1753 99° East 505 581 39,000  Level Cleveland Center
Sat 11:15:11 PM 42.2572 -80.9900 98° East 505 581 39,000  Level Cleveland Center
Sat 11:16:11 PM 42.2350 -80.7936 99° East 511 588 39,000  Level Cleveland Center
Sat 11:17:11 PM 42.2183 -80.6253 98° East 506 582 39,000  Level Cleveland Center
Sat 11:18:11 PM 42.1953 -80.4375 99° East 506 582 39,000  Level Cleveland Center
Sat 11:19:11 PM 42.1742 -80.2497 99° East 512 589 39,000  Level Cleveland Center
Sat 11:20:11 PM 42.1506 -80.0594 99° East 506 582 39,000  Level Cleveland Center
Sat 11:21:11 PM 42.1264 -79.8553 99° East 506 582 39,000  Level Cleveland Center
Sat 11:22:11 PM 42.1064 -79.6653 98° East 506 582 39,000  Level Cleveland Center
Sat 11:23:11 PM 42.0797 -79.4753 101° East 506 582 39,000  Level Cleveland Center
Sat 11:24:11 PM 42.0589 -79.2883 98° East 506 582 39,000  Level Cleveland Center
Sat 11:25:11 PM 42.0339 -79.0986 100° East 506 582 39,000  Level Cleveland Center
Sat 11:26:11 PM 42.0103 -78.9119 100° East 506 582 39,000 -500 Level Cleveland Center
Sat 11:27:11 PM 41.9844 -78.7228 100° East 506 582 38,000 -1,800 Descending Cleveland Center
Sat 11:28:11 PM 41.9583 -78.5336 100° East 506 582 35,400 -1,500 Descending Cleveland Center
Sat 11:29:11 PM 41.9319 -78.3392 100° East 512 589 35,000 -200 Descending Cleveland Center
Sat 11:30:11 PM 41.9031 -78.1475 101° East 523 602 35,000  Level Cleveland Center
Sat 11:32:18 PM 41.8369 -77.7503 102° East 515 593 35,000  Level New York Center
Sat 11:33:18 PM 41.7856 -77.5614 110° East 528 608 35,000  Level New York Center
Sat 11:34:19 PM 41.7358 -77.3728 109° East 538 619 35,000  Level New York Center
Sat 11:35:20 PM 41.6856 -77.1844 110° East 538 619 35,000  Level New York Center
Sat 11:36:18 PM 41.6369 -77.0022 110° East 538 619 35,000  Level New York Center
Sat 11:37:18 PM 41.5917 -76.8314 109° East 538 619 35,000  Level New York Center
Sat 11:38:18 PM 41.5369 -76.6353 110° East 532 612 35,000  Level New York Center
Sat 11:39:17 PM 41.4897 -76.4511 109° East 527 606 35,000  Level New York Center
Sat 11:40:18 PM 41.4400 -76.2669 110° East 527 606 35,000 -150 Level New York Center
Sat 11:41:17 PM 41.3917 -76.0969 111° Southeast 527 606 34,700 -1,700 Descending New York Center
Sat 11:42:18 PM 41.3389 -75.9189 111° Southeast 527 606 31,600 -2,700 Descending New York Center
Sat 11:43:17 PM 41.2786 -75.7208 112° Southeast 521 600 29,300 -2,874 Descending New York Center
Sat 11:44:17 PM 41.2311 -75.5631 112° Southeast 521 600 25,900 -2,852 Descending New York Center
Sat 11:45:19 PM 41.1750 -75.3992 114° Southeast 506 582 23,500 -1,450 Descending New York Center
Sat 11:46:17 PM 41.1208 -75.2383 114° Southeast 487 560 23,000 -254 Descending New York Center
Sat 11:47:17 PM 41.0703 -75.0836 113° Southeast 467 537 23,000  Level New York Center
Sat 11:48:17 PM 41.0100 -74.9039 114° Southeast 467 537 23,000 -49 Level New York Center
Sat 11:49:19 PM 40.9825 -74.7400 102° East 467 537 22,900 -595 Descending New York Center
Sat 11:50:18 PM 40.9631 -74.5714 99° East 462 532 21,800 -1,220 Descending New York Center
Sat 11:51:17 PM 40.9472 -74.4056 97° East 457 526 20,500 -1,250 Descending New York Center
Sat 11:52:18 PM 40.9064 -74.2469 109° East 451 519 19,300 -934 Descending New York Center
Sat 11:53:19 PM 40.8131 -74.1572 144° Southeast 436 502 18,600 -1,000 Descending New York Center
Sat 11:54:18 PM 40.7033 -74.0561 145° Southeast 435 501 17,300 -1,627 Descending New York Center
Sat 11:55:17 PM 40.6139 -73.9806 147° Southeast 435 501 15,400 -1,686 Descending New York Center
Sat 11:56:19 PM 40.5250 -73.8753 138° Southeast 405 466 13,900 -1,612 Descending New York Center
Sat 11:57:31 PM 40.4500 -73.7333 125° Southeast 339 390 11,800 -2,318 Descending New York TRACON
Sat 11:58:31 PM 40.4000 -73.6333 123° Southeast 312 359 8,800 -2,650 Descending New York TRACON
Sat 11:59:31 PM 40.4333 -73.5500 62° Northeast 264 304 6,500 -1,900 Descending New York TRACON
Sun 12:00:31 AM 40.4833 -73.5167 27° Northeast 205 236 5,000 -1,500 Descending New York TRACON
Sun 12:01:31 AM 40.5333 -73.5333 346° North 182 209 3,500 -1,350 Descending New York TRACON
Sun 12:02:31 AM 40.5667 -73.5833 311° West 175 201 2,300 -744 Descending New York TRACON
Sun 12:03:32 AM 40.5833 -73.6167 303° West 148 170 2,000 -295 Descending New York TRACON

Login

Don't have an account? Register now (free) for customized features, flight alerts, and more!